Time;durP1;ratioP1;P1;durP2;ratioP2;P2;SDS_P1;SDS_P2;PMS_P1;PMS_P2;Temp;Humidity;BMP_temperature;BMP_pressure;BME280_temperature;BME280_humidity;BME280_pressure;Samples;Min_cycle;Max_cycle;Signal;HPM_P1;HPM_P2
2023/06/24 00:02:11;;;;;;;11.88;7.47;;;;;;;-140.66;100.00;55571.53;5116756;28;20027;-75
2023/06/24 00:05:00;;;;;;;9.73;7.45;;;;;;;-140.66;100.00;55571.53;5117248;28;20024;-75
2023/06/24 00:07:45;;;;;;;9.88;7.18;;;;;;;-140.66;100.00;55571.53;5107933;28;20034;-75
2023/06/24 00:10:31;;;;;;;9.88;7.93;;;;;;;-140.66;100.00;55571.53;5119648;28;20039;-76
2023/06/24 00:13:17;;;;;;;9.32;7.10;;;;;;;-140.66;100.00;55571.53;5115479;28;20024;-76
2023/06/24 00:16:03;;;;;;;7.90;7.10;;;;;;;-140.66;100.00;55571.53;5115883;28;20449;-75
2023/06/24 00:18:49;;;;;;;8.25;7.35;;;;;;;-140.66;100.00;55571.53;5116022;28;20311;-75
2023/06/24 00:21:37;;;;;;;8.38;7.40;;;;;;;-140.66;100.00;55571.53;5102019;28;20079;-75
2023/06/24 00:24:25;;;;;;;8.77;7.72;;;;;;;-140.66;100.00;55571.53;5118157;28;20027;-76
2023/06/24 00:27:11;;;;;;;14.68;7.32;;;;;;;-140.66;100.00;55571.53;5115144;28;20042;-74
2023/06/24 00:29:56;;;;;;;9.65;7.03;;;;;;;-140.66;100.00;55571.53;5100500;28;20350;-76
2023/06/24 00:32:42;;;;;;;10.43;7.32;;;;;;;-140.66;100.00;55571.53;5116027;28;20030;-75
2023/06/24 00:35:28;;;;;;;11.65;7.60;;;;;;;-140.66;100.00;55571.53;5115086;28;20055;-75
2023/06/24 00:38:14;;;;;;;9.13;7.72;;;;;;;-140.66;100.00;55571.53;5116790;28;20072;-75
2023/06/24 00:41:00;;;;;;;10.25;7.22;;;;;;;-140.66;100.00;55571.53;5115558;28;20027;-75
2023/06/24 00:43:46;;;;;;;9.80;7.53;;;;;;;-140.66;100.00;55571.53;5113738;28;20024;-75
2023/06/24 00:46:33;;;;;;;8.35;7.03;;;;;;;-140.66;100.00;55571.53;5114805;28;20028;-75
2023/06/24 00:49:18;;;;;;;8.98;7.32;;;;;;;-140.66;100.00;55571.53;5114183;28;20024;-74
2023/06/24 00:52:05;;;;;;;11.52;7.60;;;;;;;-140.66;100.00;55571.53;5114524;28;20445;-74
2023/06/24 00:54:50;;;;;;;8.55;7.10;;;;;;;-140.66;100.00;55571.53;5115719;28;20035;-75
2023/06/24 00:57:37;;;;;;;8.23;7.20;;;;;;;-140.66;100.00;55571.53;5100739;28;20042;-75
2023/06/24 01:00:23;;;;;;;7.90;7.10;;;;;;;-140.66;100.00;55571.53;5115146;28;20389;-75
2023/06/24 01:03:13;;;;;;;9.02;7.50;;;;;;;-140.66;100.00;55571.53;5115468;28;20027;-74
2023/06/24 01:05:59;;;;;;;8.52;7.63;;;;;;;-140.66;100.00;55571.53;5100666;28;20028;-75
2023/06/24 01:08:50;;;;;;;10.43;7.28;;;;;;;-140.66;100.00;55571.53;5115196;28;20020;-75
2023/06/24 01:11:36;;;;;;;7.63;6.82;;;;;;;-140.66;100.00;55571.53;5114917;28;20031;-75
2023/06/24 01:14:23;;;;;;;11.13;7.40;;;;;;;-140.66;100.00;55571.53;5113865;28;20398;-75
2023/06/24 01:17:15;;;;;;;7.90;6.90;;;;;;;-140.66;100.00;55571.53;5114889;28;20372;-75
2023/06/24 01:20:15;;;;;;;8.65;7.00;;;;;;;-140.66;100.00;55571.53;5114904;27;20537;-75
2023/06/24 01:23:04;;;;;;;9.43;6.57;;;;;;;-140.66;100.00;55571.53;5120000;27;20039;-75
2023/06/24 01:25:59;;;;;;;8.45;6.57;;;;;;;-140.66;100.00;55571.53;5119819;27;20091;-75
2023/06/24 01:29:00;;;;;;;7.50;6.65;;;;;;;-140.66;100.00;55571.53;5120150;27;20091;-74
2023/06/24 01:32:15;;;;;;;8.60;7.18;;;;;;;-140.66;100.00;55571.53;5119922;27;20062;-75
2023/06/24 01:35:30;;;;;;;10.82;7.10;;;;;;;-140.66;100.00;55571.53;5129616;27;20019;-75
2023/06/24 01:38:38;;;;;;;8.57;7.25;;;;;;;-140.66;100.00;55571.53;5134593;27;20098;-76
2023/06/24 01:41:31;;;;;;;9.27;6.80;;;;;;;-140.66;100.00;55571.53;5134349;27;20027;-76
2023/06/24 01:44:18;;;;;;;9.00;7.07;;;;;;;-140.66;100.00;55571.53;5119601;27;20019;-76
2023/06/24 01:47:06;;;;;;;8.32;6.88;;;;;;;-140.66;100.00;55571.53;5119211;28;20023;-75
2023/06/24 01:49:54;;;;;;;9.10;7.68;;;;;;;-140.66;100.00;55571.53;5120286;28;20106;-75
2023/06/24 01:52:43;;;;;;;7.45;6.60;;;;;;;-140.66;100.00;55571.53;5134385;28;20086;-74
2023/06/24 01:55:31;;;;;;;8.30;6.85;;;;;;;-140.66;100.00;55571.53;5135032;28;20033;-75
2023/06/24 01:58:18;;;;;;;7.82;6.85;;;;;;;-140.66;100.00;55571.53;5119720;28;20070;-74
2023/06/24 02:01:05;;;;;;;9.25;7.07;;;;;;;-140.66;100.00;55571.53;5134498;28;20468;-75
2023/06/24 02:03:54;;;;;;;10.48;7.60;;;;;;;-140.66;100.00;55571.53;5133692;28;20432;-75
2023/06/24 02:06:41;;;;;;;8.48;6.95;;;;;;;-140.66;100.00;55571.53;5134703;28;20049;-75
2023/06/24 02:09:28;;;;;;;7.88;7.07;;;;;;;-140.66;100.00;55571.53;5134717;28;20035;-75
2023/06/24 02:12:15;;;;;;;9.52;6.75;;;;;;;-140.66;100.00;55571.53;5119710;28;20015;-75
2023/06/24 02:15:04;;;;;;;7.68;6.57;;;;;;;-140.66;100.00;55571.53;5134438;28;20019;-75
2023/06/24 02:17:56;;;;;;;8.32;6.53;;;;;;;-140.66;100.00;55571.53;5135206;28;20035;-75
2023/06/24 02:20:44;;;;;;;10.20;6.97;;;;;;;-140.66;100.00;55571.53;5134637;28;20419;-75
2023/06/24 02:23:30;;;;;;;7.93;6.95;;;;;;;-140.66;100.00;55571.53;5118660;28;20023;-75
2023/06/24 02:26:17;;;;;;;11.60;7.63;;;;;;;-140.66;100.00;55571.53;5133888;28;20023;-75
2023/06/24 02:29:03;;;;;;;9.68;7.40;;;;;;;-140.66;100.00;55571.53;5134643;28;20027;-75
2023/06/24 02:31:49;;;;;;;11.15;8.02;;;;;;;-140.66;100.00;55571.53;5134718;28;20027;-76
2023/06/24 02:34:35;;;;;;;10.73;8.50;;;;;;;-140.66;100.00;55571.53;5133341;28;20098;-76
2023/06/24 02:37:21;;;;;;;13.82;8.30;;;;;;;-140.66;100.00;55571.53;5137273;27;20015;-75
2023/06/24 02:40:08;;;;;;;9.52;7.57;;;;;;;-140.66;100.00;55571.53;5138719;27;20028;-75
2023/06/24 02:42:53;;;;;;;9.25;8.20;;;;;;;-140.66;100.00;55571.53;5138131;27;20121;-74
2023/06/24 02:45:39;;;;;;;11.68;7.65;;;;;;;-140.66;100.00;55571.53;5138278;27;20041;-75
2023/06/24 02:48:25;;;;;;;12.25;8.63;;;;;;;-140.66;100.00;55571.53;5138790;27;20019;-75
2023/06/24 02:51:12;;;;;;;11.35;8.80;;;;;;;-140.66;100.00;55571.53;5137669;27;20095;-75
2023/06/24 02:53:58;;;;;;;10.00;8.35;;;;;;;-140.66;100.00;55571.53;5126000;27;20023;-73
2023/06/24 02:56:44;;;;;;;9.10;8.18;;;;;;;-140.66;100.00;55571.53;5147221;27;20031;-73
2023/06/24 02:59:29;;;;;;;9.65;8.32;;;;;;;-140.66;100.00;55571.53;5137703;27;20027;-74
2023/06/24 03:02:16;;;;;;;10.57;8.20;;;;;;;-140.66;100.00;55571.53;5136956;27;20031;-75
2023/06/24 03:05:02;;;;;;;13.93;8.32;;;;;;;-140.66;100.00;55571.53;5137043;27;20027;-75
2023/06/24 03:07:48;;;;;;;12.95;9.02;;;;;;;-140.66;100.00;55571.53;5123162;27;20525;-75
2023/06/24 03:10:36;;;;;;;10.95;8.55;;;;;;;-140.66;100.00;55571.53;5137982;27;20027;-75
2023/06/24 03:13:23;;;;;;;10.20;8.60;;;;;;;-140.66;100.00;55571.53;5137525;27;20038;-76
2023/06/24 03:16:14;;;;;;;11.00;8.57;;;;;;;-140.66;100.00;55571.53;5137262;27;20054;-75
2023/06/24 03:19:00;;;;;;;13.25;8.60;;;;;;;-140.66;100.00;55571.53;5146955;27;20055;-74
2023/06/24 03:21:46;;;;;;;11.98;8.60;;;;;;;-140.66;100.00;55571.53;5157801;27;20118;-73
2023/06/24 03:24:32;;;;;;;10.57;8.35;;;;;;;-140.66;100.00;55571.53;5152270;27;20031;-75
2023/06/24 03:27:17;;;;;;;9.48;8.43;;;;;;;-140.66;100.00;55571.53;5126396;27;20077;-75
2023/06/24 03:30:04;;;;;;;11.45;9.23;;;;;;;-140.66;100.00;55571.53;5137325;27;20090;-75
2023/06/24 03:32:49;;;;;;;12.07;9.05;;;;;;;-140.66;100.00;55571.53;5121963;27;20480;-74
2023/06/24 03:35:35;;;;;;;13.27;9.05;;;;;;;-140.66;100.00;55571.53;5136913;27;20027;-74
2023/06/24 03:38:21;;;;;;;13.93;9.55;;;;;;;-140.66;100.00;55571.53;5136990;27;20080;-74
2023/06/24 03:41:07;;;;;;;10.18;8.30;;;;;;;-140.66;100.00;55571.53;5146999;27;20015;-73
2023/06/24 03:43:53;;;;;;;12.88;9.10;;;;;;;-140.66;100.00;55571.53;5157025;27;20011;-75
2023/06/24 03:46:38;;;;;;;13.35;9.20;;;;;;;-140.66;100.00;55571.53;5156380;27;20027;-72
2023/06/24 03:49:24;;;;;;;12.45;9.05;;;;;;;-140.66;100.00;55571.53;5154623;27;20053;-74
2023/06/24 03:52:10;;;;;;;10.50;8.93;;;;;;;-140.66;100.00;55571.53;5141637;27;20023;-74
2023/06/24 03:54:56;;;;;;;10.70;9.30;;;;;;;-140.66;100.00;55571.53;5124755;27;20055;-75
2023/06/24 03:57:41;;;;;;;11.20;8.70;;;;;;;-140.66;100.00;55571.53;5137141;27;20030;-75
2023/06/24 04:00:27;;;;;;;13.98;8.75;;;;;;;-140.66;100.00;55571.53;5136887;27;20030;-75
2023/06/24 04:03:13;;;;;;;10.80;9.00;;;;;;;-140.66;100.00;55571.53;5135410;27;20047;-75
2023/06/24 04:06:01;;;;;;;14.20;8.20;;;;;;;-140.66;100.00;55571.53;5137271;27;20459;-75
2023/06/24 04:08:48;;;;;;;12.65;9.10;;;;;;;-140.66;100.00;55571.53;5135485;27;20088;-74
2023/06/24 04:11:34;;;;;;;11.85;9.65;;;;;;;-140.66;100.00;55571.53;5135619;27;20038;-75
2023/06/24 04:14:20;;;;;;;10.80;9.40;;;;;;;-140.66;100.00;55571.53;5134930;27;20027;-75
2023/06/24 04:17:05;;;;;;;14.75;9.05;;;;;;;-140.66;100.00;55571.53;5136104;27;20035;-74
2023/06/24 04:19:51;;;;;;;12.88;9.63;;;;;;;-140.66;100.00;55571.53;5135424;27;20156;-75
2023/06/24 04:22:38;;;;;;;13.05;10.00;;;;;;;-140.66;100.00;55571.53;5120697;27;20454;-75
2023/06/24 04:25:23;;;;;;;15.23;10.45;;;;;;;-140.66;100.00;55571.53;5135461;27;20059;-75
2023/06/24 04:28:09;;;;;;;12.80;8.88;;;;;;;-140.66;100.00;55571.53;5135747;27;20110;-75
2023/06/24 04:30:56;;;;;;;14.93;9.52;;;;;;;-140.66;100.00;55571.53;5135910;27;20038;-75
2023/06/24 04:33:41;;;;;;;12.85;9.50;;;;;;;-140.66;100.00;55571.53;5135692;27;20099;-75
2023/06/24 04:36:27;;;;;;;15.02;9.82;;;;;;;-140.66;100.00;55571.53;5135580;27;20019;-75
2023/06/24 04:39:13;;;;;;;18.45;9.25;;;;;;;-140.66;100.00;55571.53;5134904;27;20445;-75
2023/06/24 04:41:59;;;;;;;15.35;8.40;;;;;;;-140.66;100.00;55571.53;5136464;27;20357;-75
2023/06/24 04:44:44;;;;;;;11.57;8.00;;;;;;;-140.66;100.00;55571.53;5135003;27;20027;-75
2023/06/24 04:47:30;;;;;;;12.95;6.90;;;;;;;-140.66;100.00;55571.53;5135695;27;20453;-75
2023/06/24 04:50:16;;;;;;;9.10;7.07;;;;;;;-140.66;100.00;55571.53;5135208;27;20135;-76
2023/06/24 04:53:02;;;;;;;9.98;7.20;;;;;;;-140.66;100.00;55571.53;5134672;27;20346;-75
2023/06/24 04:55:48;;;;;;;11.00;7.13;;;;;;;-140.66;100.00;55571.53;5134627;27;20070;-76
2023/06/24 04:58:33;;;;;;;11.75;7.18;;;;;;;-140.66;100.00;55571.53;5134910;27;20492;-76
2023/06/24 05:01:19;;;;;;;11.63;7.45;;;;;;;-140.66;100.00;55571.53;5120805;27;20475;-76
2023/06/24 05:04:05;;;;;;;9.15;7.35;;;;;;;-140.66;100.00;55571.53;5121104;27;20050;-76
2023/06/24 05:06:50;;;;;;;12.23;7.38;;;;;;;-140.66;100.00;55571.53;5135537;27;20118;-76
2023/06/24 05:09:37;;;;;;;12.02;9.75;;;;;;;-140.66;100.00;55571.53;5135119;27;20035;-76
2023/06/24 05:12:23;;;;;;;13.85;9.50;;;;;;;-140.66;100.00;55571.53;5134329;27;20023;-76
2023/06/24 05:15:09;;;;;;;10.38;9.27;;;;;;;-140.66;100.00;55571.53;5134946;27;20076;-76
2023/06/24 05:17:56;;;;;;;13.68;9.20;;;;;;;-140.66;100.00;55571.53;5135369;27;20031;-76
2023/06/24 05:20:41;;;;;;;13.98;9.50;;;;;;;-140.66;100.00;55571.53;5135445;27;20188;-75
2023/06/24 05:23:27;;;;;;;12.93;9.27;;;;;;;-140.66;100.00;55571.53;5135111;27;20084;-75
2023/06/24 05:26:14;;;;;;;11.38;9.20;;;;;;;-140.66;100.00;55571.53;5134986;27;20091;-77
2023/06/24 05:28:59;;;;;;;10.65;8.55;;;;;;;-140.66;100.00;55571.53;5134916;27;20035;-76
2023/06/24 05:31:46;;;;;;;12.07;8.95;;;;;;;-140.66;100.00;55571.53;5134581;27;20023;-75
2023/06/24 05:34:32;;;;;;;10.27;7.63;;;;;;;-140.66;100.00;55571.53;5119575;28;20019;-75
2023/06/24 05:37:18;;;;;;;12.77;8.90;;;;;;;-140.66;100.00;55571.53;5134313;27;20110;-75
2023/06/24 05:40:05;;;;;;;12.05;8.68;;;;;;;-140.66;100.00;55571.53;5119228;27;20019;-76
2023/06/24 05:42:51;;;;;;;14.75;9.20;;;;;;;-140.66;100.00;55571.53;5119594;27;20027;-76
2023/06/24 05:45:37;;;;;;;11.13;8.98;;;;;;;-140.66;100.00;55571.53;5134541;27;20419;-76
2023/06/24 05:48:23;;;;;;;16.38;8.88;;;;;;;-140.66;100.00;55571.53;5119287;28;20023;-76
2023/06/24 05:51:09;;;;;;;11.23;8.32;;;;;;;-140.66;100.00;55571.53;5135135;28;20068;-76
2023/06/24 05:53:54;;;;;;;9.88;8.23;;;;;;;-140.66;100.00;55571.53;5135376;28;20455;-75
2023/06/24 05:56:40;;;;;;;11.88;8.32;;;;;;;-140.66;100.00;55571.53;5133812;28;20110;-76
2023/06/24 05:59:26;;;;;;;10.20;8.30;;;;;;;-140.66;100.00;55571.53;5119017;28;20023;-75
2023/06/24 06:02:12;;;;;;;13.85;8.88;;;;;;;-140.66;100.00;55571.53;5134794;28;20088;-75
2023/06/24 06:04:57;;;;;;;15.45;9.65;;;;;;;-140.66;100.00;55571.53;5134061;28;20326;-76
2023/06/24 06:07:43;;;;;;;14.63;8.73;;;;;;;-140.66;100.00;55571.53;5119645;28;20163;-75
2023/06/24 06:10:29;;;;;;;13.60;8.95;;;;;;;-140.66;100.00;55571.53;5119696;27;20035;-76
2023/06/24 06:13:15;;;;;;;11.45;8.93;;;;;;;-140.66;100.00;55571.53;5122911;27;20014;-75
2023/06/24 06:16:00;;;;;;;15.23;8.60;;;;;;;-140.66;100.00;55571.53;5139596;27;20023;-76
2023/06/24 06:18:46;;;;;;;12.15;8.93;;;;;;;-140.66;100.00;55571.53;5137883;27;20047;-75
2023/06/24 06:21:32;;;;;;;9.88;8.20;;;;;;;-140.66;100.00;55571.53;5138707;27;20110;-75
2023/06/24 06:24:17;;;;;;;13.48;8.85;;;;;;;-140.66;100.00;55571.53;5138050;27;20019;-76
2023/06/24 06:27:04;;;;;;;12.93;8.63;;;;;;;-140.66;100.00;55571.53;5137904;27;20452;-76
2023/06/24 06:29:50;;;;;;;10.15;8.63;;;;;;;-140.66;100.00;55571.53;5123770;27;20330;-76
2023/06/24 06:32:35;;;;;;;9.77;8.50;;;;;;;-140.66;100.00;55571.53;5143573;27;20023;-75
2023/06/24 06:35:21;;;;;;;11.02;8.85;;;;;;;-140.66;100.00;55571.53;5140601;27;20150;-74
2023/06/24 06:38:07;;;;;;;11.13;9.15;;;;;;;-140.66;100.00;55571.53;5142332;27;20048;-76
2023/06/24 06:40:53;;;;;;;12.88;9.10;;;;;;;-140.66;100.00;55571.53;5139052;27;20458;-77
2023/06/24 06:43:38;;;;;;;12.63;9.02;;;;;;;-140.66;100.00;55571.53;5137553;27;20399;-75
2023/06/24 06:46:24;;;;;;;16.40;8.98;;;;;;;-140.66;100.00;55571.53;5138188;27;20084;-76
2023/06/24 06:49:10;;;;;;;11.43;8.50;;;;;;;-140.66;100.00;55571.53;5138165;27;20015;-74
2023/06/24 06:51:55;;;;;;;13.32;8.65;;;;;;;-140.66;100.00;55571.53;5136817;27;20027;-75
2023/06/24 06:54:41;;;;;;;10.68;8.10;;;;;;;-140.66;100.00;55571.53;5137379;27;20019;-75
2023/06/24 06:57:27;;;;;;;13.25;8.80;;;;;;;-140.66;100.00;55571.53;5123574;27;20049;-76
2023/06/24 07:00:13;;;;;;;10.55;8.95;;;;;;;-140.66;100.00;55571.53;5137811;27;20023;-75
2023/06/24 07:02:59;;;;;;;11.13;8.38;;;;;;;-140.66;100.00;55571.53;5122612;27;20073;-75
2023/06/24 07:05:46;;;;;;;10.70;8.15;;;;;;;-140.66;100.00;55571.53;5137085;27;20051;-75
2023/06/24 07:08:32;;;;;;;10.40;8.32;;;;;;;-140.66;100.00;55571.53;5137232;27;20031;-74
2023/06/24 07:11:17;;;;;;;10.27;8.40;;;;;;;-140.66;100.00;55571.53;5136443;27;20027;-74
2023/06/24 07:14:03;;;;;;;12.55;7.85;;;;;;;-140.66;100.00;55571.53;5121976;27;20034;-75
2023/06/24 07:16:49;;;;;;;16.65;9.10;;;;;;;-140.66;100.00;55571.53;5137855;27;20097;-75
2023/06/24 07:19:35;;;;;;;14.63;8.60;;;;;;;-140.66;100.00;55571.53;5136879;27;20047;-75
2023/06/24 07:22:20;;;;;;;10.40;8.10;;;;;;;-140.66;100.00;55571.53;5136950;27;20023;-75
2023/06/24 07:25:06;;;;;;;9.48;8.48;;;;;;;-140.66;100.00;55571.53;5136684;27;20062;-75
2023/06/24 07:27:52;;;;;;;14.70;8.68;;;;;;;-140.66;100.00;55571.53;5137440;27;20026;-75
2023/06/24 07:30:38;;;;;;;12.88;7.90;;;;;;;-140.66;100.00;55571.53;5136445;27;20035;-75
2023/06/24 07:33:23;;;;;;;12.85;8.48;;;;;;;-140.66;100.00;55571.53;5137526;27;20025;-75
2023/06/24 07:36:09;;;;;;;12.57;8.05;;;;;;;-140.66;100.00;55571.53;5136441;27;20475;-76
2023/06/24 07:38:55;;;;;;;12.77;8.18;;;;;;;-140.66;100.00;55571.53;5137784;27;20027;-75
2023/06/24 07:41:42;;;;;;;10.43;8.15;;;;;;;-140.66;100.00;55571.53;5121935;27;20102;-75
2023/06/24 07:44:28;;;;;;;15.07;9.00;;;;;;;-140.66;100.00;55571.53;5137385;27;20027;-75
2023/06/24 07:47:14;;;;;;;11.35;8.07;;;;;;;-140.66;100.00;55571.53;5137211;27;20087;-76
2023/06/24 07:50:01;;;;;;;15.25;8.25;;;;;;;-140.66;100.00;55571.53;5121532;27;20456;-74
2023/06/24 07:52:46;;;;;;;11.55;8.10;;;;;;;-140.66;100.00;55571.53;5136389;27;20346;-75
2023/06/24 07:55:32;;;;;;;10.10;7.68;;;;;;;-140.66;100.00;55571.53;5137286;27;20084;-75
2023/06/24 07:58:19;;;;;;;11.48;7.63;;;;;;;-140.66;100.00;55571.53;5136176;27;20027;-75
2023/06/24 08:01:05;;;;;;;14.02;7.68;;;;;;;-140.66;100.00;55571.53;5135792;27;20041;-74
2023/06/24 08:03:51;;;;;;;10.43;7.45;;;;;;;-140.66;100.00;55571.53;5120836;27;20023;-75
2023/06/24 08:06:37;;;;;;;12.60;7.80;;;;;;;-140.66;100.00;55571.53;5136738;27;20027;-75
2023/06/24 08:09:23;;;;;;;14.07;7.43;;;;;;;-140.66;100.00;55571.53;5135993;27;20023;-75
2023/06/24 08:12:09;;;;;;;14.13;8.32;;;;;;;-140.66;100.00;55571.53;5135821;27;20027;-75
2023/06/24 08:14:55;;;;;;;12.98;7.00;;;;;;;-140.66;100.00;55571.53;5136644;27;20019;-75
2023/06/24 08:17:41;;;;;;;8.43;7.30;;;;;;;-140.66;100.00;55571.53;5137180;27;20026;-76
2023/06/24 08:20:26;;;;;;;14.00;7.82;;;;;;;-140.66;100.00;55571.53;5135109;27;20119;-75
2023/06/24 08:23:12;;;;;;;15.82;7.50;;;;;;;-140.66;100.00;55571.53;5136554;27;20468;-74
2023/06/24 08:25:58;;;;;;;9.52;6.90;;;;;;;-140.66;100.00;55571.53;5120584;27;20088;-74
2023/06/24 08:28:46;;;;;;;14.88;8.07;;;;;;;-140.66;100.00;55571.53;5120513;27;20054;-74
2023/06/24 08:31:32;;;;;;;13.10;7.40;;;;;;;-140.66;100.00;55571.53;5136173;27;20027;-75
2023/06/24 08:34:17;;;;;;;10.50;8.07;;;;;;;-140.66;100.00;55571.53;5120024;27;20019;-73
2023/06/24 08:37:03;;;;;;;10.48;7.72;;;;;;;-140.66;100.00;55571.53;5136183;27;20023;-75
2023/06/24 08:39:49;;;;;;;11.57;8.05;;;;;;;-140.66;100.00;55571.53;5136038;27;20058;-74
2023/06/24 08:42:35;;;;;;;8.80;7.90;;;;;;;-140.66;100.00;55571.53;5135443;27;20019;-74
2023/06/24 08:45:20;;;;;;;9.32;7.50;;;;;;;-140.66;100.00;55571.53;5135776;27;20080;-74
2023/06/24 08:48:06;;;;;;;14.38;8.30;;;;;;;-140.66;100.00;55571.53;5135241;27;20106;-75
2023/06/24 08:50:57;;;;;;;10.43;7.28;;;;;;;-140.66;100.00;55571.53;5134433;27;20042;-71
2023/06/24 08:53:44;;;;;;;11.07;6.78;;;;;;;-140.66;100.00;55571.53;5136124;27;20110;-73
2023/06/24 08:56:30;;;;;;;8.73;5.90;;;;;;;-140.66;100.00;55571.53;5135359;27;20054;-72
2023/06/24 08:59:20;;;;;;;14.98;5.32;;;;;;;-140.66;100.00;55571.53;5135427;27;20372;-72
2023/06/24 09:02:06;;;;;;;8.10;5.30;;;;;;;-140.66;100.00;55571.53;5134666;27;20495;-70
2023/06/24 09:04:52;;;;;;;13.13;5.90;;;;;;;-140.66;100.00;55571.53;5120051;27;20027;-71
2023/06/24 09:07:38;;;;;;;9.90;4.75;;;;;;;-140.66;100.00;55571.53;5135476;27;20100;-70
2023/06/24 09:10:34;;;;;;;6.30;4.75;;;;;;;-140.66;100.00;55571.53;5134443;27;20476;-71
2023/06/24 09:13:22;;;;;;;16.35;5.20;;;;;;;-140.66;100.00;55571.53;5135140;27;20038;-71
2023/06/24 09:16:13;;;;;;;8.13;5.00;;;;;;;-140.66;100.00;55571.53;5134605;27;20460;-70
2023/06/24 09:19:00;;;;;;;13.70;5.05;;;;;;;-140.66;100.00;55571.53;5134182;27;20111;-70
2023/06/24 09:21:46;;;;;;;5.55;5.05;;;;;;;-140.66;100.00;55571.53;5119705;27;20045;-71
2023/06/24 09:24:36;;;;;;;9.50;5.07;;;;;;;-140.66;100.00;55571.53;5135077;27;20024;-72
2023/06/24 09:27:23;;;;;;;6.82;5.00;;;;;;;-140.66;100.00;55571.53;5120561;27;20027;-71
2023/06/24 09:30:20;;;;;;;5.38;4.70;;;;;;;-140.66;100.00;55571.53;5133926;27;20106;-71
2023/06/24 09:33:11;;;;;;;5.70;5.10;;;;;;;-140.66;100.00;55571.53;5135541;27;20038;-70
2023/06/24 09:35:57;;;;;;;5.75;5.07;;;;;;;-140.66;100.00;55571.53;5134684;27;20035;-71
2023/06/24 09:38:46;;;;;;;7.35;5.00;;;;;;;-140.66;100.00;55571.53;5134195;27;20092;-72
2023/06/24 09:41:32;;;;;;;10.00;5.00;;;;;;;-140.66;100.00;55571.53;5134665;27;20364;-71
2023/06/24 09:44:21;;;;;;;9.45;5.20;;;;;;;-140.66;100.00;55571.53;5119640;27;20023;-72
2023/06/24 09:47:07;;;;;;;7.72;4.50;;;;;;;-140.66;100.00;55571.53;5134572;27;20034;-71
2023/06/24 09:49:54;;;;;;;5.63;4.95;;;;;;;-140.66;100.00;55571.53;5134055;27;20027;-71
2023/06/24 09:52:40;;;;;;;23.48;5.53;;;;;;;-140.66;100.00;55571.53;5134587;28;20042;-71
2023/06/24 09:55:27;;;;;;;6.90;4.78;;;;;;;-140.66;100.00;55571.53;5133816;28;20379;-71
2023/06/24 09:58:14;;;;;;;11.95;4.75;;;;;;;-140.66;100.00;55571.53;5119614;28;20031;-71
2023/06/24 10:01:04;;;;;;;8.35;4.60;;;;;;;-140.66;100.00;55571.53;5120436;28;20023;-71
2023/06/24 10:03:50;;;;;;;5.97;4.97;;;;;;;-140.66;100.00;55571.53;5133401;28;20052;-71
2023/06/24 10:06:35;;;;;;;8.10;4.93;;;;;;;-140.66;100.00;55571.53;5134560;28;20031;-71
2023/06/24 10:09:21;;;;;;;6.60;5.32;;;;;;;-140.66;100.00;55571.53;5133540;28;20039;-71
2023/06/24 10:12:08;;;;;;;8.23;5.00;;;;;;;-140.66;100.00;55571.53;5134660;28;20413;-72
2023/06/24 10:14:53;;;;;;;6.20;5.07;;;;;;;-140.66;100.00;55571.53;5134973;28;20024;-72
2023/06/24 10:17:39;;;;;;;10.02;5.50;;;;;;;-140.66;100.00;55571.53;5134328;28;20105;-72
2023/06/24 10:20:26;;;;;;;9.52;5.43;;;;;;;-140.66;100.00;55571.53;5133189;28;20083;-72
2023/06/24 10:23:11;;;;;;;7.03;5.60;;;;;;;-140.66;100.00;55571.53;5134236;28;20491;-72
2023/06/24 10:25:57;;;;;;;9.00;5.45;;;;;;;-140.66;100.00;55571.53;5135401;28;20340;-72
2023/06/24 10:29:05;;;;;;;6.30;5.53;;;;;;;-140.66;100.00;55571.53;5119686;28;20088;-72
2023/06/24 10:31:52;;;;;;;9.02;5.38;;;;;;;-140.66;100.00;55571.53;5133439;28;20033;-71
2023/06/24 10:34:37;;;;;;;17.30;6.10;;;;;;;-140.66;100.00;55571.53;5139451;28;20019;-71
2023/06/24 10:37:25;;;;;;;7.22;5.70;;;;;;;-140.66;100.00;55571.53;5131564;28;20095;-72
2023/06/24 10:40:11;;;;;;;16.52;6.15;;;;;;;-140.66;100.00;55571.53;5134397;28;20023;-70
2023/06/24 10:42:56;;;;;;;7.97;6.03;;;;;;;-140.66;100.00;55571.53;5118772;28;20381;-71
2023/06/24 10:45:49;;;;;;;12.80;6.10;;;;;;;-140.66;100.00;55571.53;5134388;28;20456;-71
2023/06/24 10:48:35;;;;;;;12.25;5.93;;;;;;;-140.66;100.00;55571.53;5127644;28;20537;-71
2023/06/24 10:51:21;;;;;;;12.60;6.35;;;;;;;-140.66;100.00;55571.53;5133033;28;20403;-71
2023/06/24 10:54:06;;;;;;;7.43;6.07;;;;;;;-140.66;100.00;55571.53;5136875;28;20023;-72
2023/06/24 10:56:53;;;;;;;6.70;6.10;;;;;;;-140.66;100.00;55571.53;5144379;27;20395;-72
2023/06/24 10:59:42;;;;;;;7.15;6.45;;;;;;;-140.66;100.00;55571.53;5137697;27;20062;-71
2023/06/24 11:02:28;;;;;;;11.52;6.57;;;;;;;-140.66;100.00;55571.53;5136423;27;20114;-70
2023/06/24 11:05:14;;;;;;;10.18;6.25;;;;;;;-140.66;100.00;55571.53;5136790;27;20031;-71
2023/06/24 11:07:59;;;;;;;13.13;6.13;;;;;;;-140.66;100.00;55571.53;5137447;27;20031;-71
2023/06/24 11:10:47;;;;;;;9.85;6.38;;;;;;;-140.66;100.00;55571.53;5137279;27;20030;-70
2023/06/24 11:13:33;;;;;;;13.52;6.20;;;;;;;-140.66;100.00;55571.53;5137378;27;20026;-73
2023/06/24 11:16:22;;;;;;;8.40;6.10;;;;;;;-140.66;100.00;55571.53;5122674;27;20119;-74
2023/06/24 11:19:08;;;;;;;7.78;6.05;;;;;;;-140.66;100.00;55571.53;5137394;27;20311;-75
2023/06/24 11:21:54;;;;;;;21.15;10.35;;;;;;;-140.66;100.00;55571.53;5143083;27;20015;-76
2023/06/24 11:24:41;;;;;;;9.65;6.13;;;;;;;-140.66;100.00;55571.53;5158020;27;20043;-75
2023/06/24 11:27:31;;;;;;;13.27;6.05;;;;;;;-140.66;100.00;55571.53;5156966;27;20031;-75
2023/06/24 11:30:17;;;;;;;8.05;5.57;;;;;;;-140.66;100.00;55571.53;5141456;27;20364;-76
2023/06/24 11:33:02;;;;;;;9.27;6.63;;;;;;;-140.66;100.00;55571.53;5157806;27;20023;-77
2023/06/24 11:35:48;;;;;;;10.25;6.35;;;;;;;-140.66;100.00;55571.53;5141817;27;20364;-77
2023/06/24 11:38:36;;;;;;;10.93;6.03;;;;;;;-140.66;100.00;55571.53;5141027;27;20027;-77
2023/06/24 11:41:23;;;;;;;7.82;5.85;;;;;;;-140.66;100.00;55571.53;5139441;27;20098;-77
2023/06/24 11:44:09;;;;;;;7.43;6.15;;;;;;;-140.66;100.00;55571.53;5136666;27;20561;-75
2023/06/24 11:47:04;;;;;;;9.35;6.20;;;;;;;-140.66;100.00;55571.53;5136837;27;20023;-75
2023/06/24 11:49:55;;;;;;;8.52;6.25;;;;;;;-140.66;100.00;55571.53;5136296;27;20069;-75
2023/06/24 11:52:44;;;;;;;6.70;6.03;;;;;;;-140.66;100.00;55571.53;5122702;27;20038;-76
2023/06/24 11:55:31;;;;;;;7.43;5.93;;;;;;;-140.66;100.00;55571.53;5122656;27;20114;-76
2023/06/24 11:58:19;;;;;;;7.95;6.13;;;;;;;-140.66;100.00;55571.53;5136549;27;20027;-76
2023/06/24 12:01:08;;;;;;;10.38;6.15;;;;;;;-140.66;100.00;55571.53;5136296;27;20030;-76
2023/06/24 12:03:54;;;;;;;7.70;5.95;;;;;;;-140.66;100.00;55571.53;5137027;27;20361;-76
2023/06/24 12:06:41;;;;;;;11.85;6.15;;;;;;;-140.66;100.00;55571.53;5136231;27;20019;-75
2023/06/24 12:09:29;;;;;;;7.78;6.03;;;;;;;-140.66;100.00;55571.53;5135717;27;20445;-77
2023/06/24 12:12:14;;;;;;;10.35;6.28;;;;;;;-140.66;100.00;55571.53;5136201;27;20034;-75
2023/06/24 12:15:00;;;;;;;7.72;5.80;;;;;;;-140.66;100.00;55571.53;5136412;27;20055;-76
2023/06/24 12:17:46;;;;;;;9.30;5.63;;;;;;;-140.66;100.00;55571.53;5135980;27;20030;-77
2023/06/24 12:20:32;;;;;;;9.80;6.05;;;;;;;-140.66;100.00;55571.53;5135429;27;20062;-74
2023/06/24 12:23:18;;;;;;;6.68;6.05;;;;;;;-140.66;100.00;55571.53;5121443;27;20038;-75
2023/06/24 12:26:04;;;;;;;9.70;5.85;;;;;;;-140.66;100.00;55571.53;5122064;27;20415;-76
2023/06/24 12:28:50;;;;;;;7.18;6.20;;;;;;;-140.66;100.00;55571.53;5135678;27;20026;-75
2023/06/24 12:31:35;;;;;;;8.98;6.07;;;;;;;-140.66;100.00;55571.53;5135459;27;20360;-76
2023/06/24 12:34:21;;;;;;;7.97;6.13;;;;;;;-140.66;100.00;55571.53;5135000;27;20011;-71